Terminal Aerodrome Forecast
Issued by NWS Wilmington, OH

Current Version | Previous Version | Graphics & Text | Print | Product List | Glossary On
Versions: 1 2 3 4 5 6 7 8 9 10 11 12 13 14 15 16 17 18 19 20 21 22 23 24
000
FTUS41 KILN 020800 AAA
TAFILN
TAF AMD
KILN 020809Z 0208/0306 04004KT P6SM SCT040 BKN060
     FM021300 10006KT P6SM VCSH OVC040
     FM021800 10006KT P6SM -SHRA SCT025 OVC040
     FM030000 10006KT P6SM VCSH SCT025 OVC040
     FM030300 06008KT P6SM VCSH SCT025 OVC040=

USA.gov is the U.S. government's official web portal to all federal, state and local government web resources and services.